Estación Meteorológica Peña el Pijo (Robertgarden) [ 11/12/18 20:33:53 CET ]

Fecha Hora Presion(HPa) Temp (°C) Humedad % Rocio (°C) Viento ( m/s) Direccion Lluvia 1Hora(mm) Lluvia 24H(mm) LLuvia Total(mm)
2018-Jul-04 01:01:40 1011.100 17.9 48 6.7         269.36
2018-Jul-04 02:01:41 1010.800 16.9 48 5.8         269.36
2018-Jul-04 03:01:39 1010.500 16.0 49 5.3         269.36
2018-Jul-04 04:06:39 1010.300 15.2 51 5.1         269.36
2018-Jul-04 05:06:09 1010.100 14.6 52 4.9         269.36
2018-Jul-04 06:01:46 1010.000 13.6 54 4.4         269.36
2018-Jul-04 07:01:53 1010.100 12.4 59 4.6         269.36
2018-Jul-04 08:01:52 1010.300 13.9 61 6.5         269.36
2018-Jul-04 09:01:46 1010.400 20.9 52 10.7         269.36
2018-Jul-04 10:01:42 1010.100 27.3 34 10.0         269.36
2018-Jul-04 11:01:39 1010.100 31.3 20 5.7 2.3 S     269.36
2018-Jul-04 12:01:58 1010.100 32.4 19 5.6         269.36
2018-Jul-04 13:01:39 1010.000 33.8 16 3.8         269.36
2018-Jul-04 14:01:39 1009.800 33.1 16 3.3         269.36
2018-Jul-04 15:01:44 1009.600 33.9 15 2.9 1.5 N     269.36
2018-Jul-04 16:01:45 1009.200 34.5 14 2.4         269.36
2018-Jul-04 17:01:43 1009.200 33.5 15 2.6         269.36
2018-Jul-04 18:01:37 1009.200 31.6 16 2.1 2.1 WSW     269.36
2018-Jul-04 19:01:45 1009.500 29.6 23 6.1         269.36
2018-Jul-04 20:01:25 1010.400 26.8 29 7.2 1.7 NNE     269.36
2018-Jul-04 21:01:43 1011.100 23.2 33 5.9         269.36
2018-Jul-04 22:01:46 1011.400 20.6 33 3.7         269.36
2018-Jul-04 23:01:51 1012.300 17.7 38 3.1         269.36

Temperatura Máxima:34°    Temperatura Mínima:12°
Presión Máxima:1012.300 Hpa    Presión Mínima:1009.200 Hpa


Volver